Petros Papagiannopoulos

Scout - AEK
12 May 2028
Friday
Process

Personality

Adaptability (10) Ambition (14) Controversy (17) Loyalty (4) Pressure (4) Professionalism (9) Sportsmanship (1) Temperament (16)

Profile

Coaching Style Democratic
License National B
Determination 14
Man Management 13
Motivating 7
Discipline 15
Job Satisfaction
100%
Fatigue
0%
Role Scout
Wage 64.3K p/w
Contract 14.03.2029

Performance

Behaviour Good
Training Effectiveness
52%
Player Development
75%
Injury Prevention
30%
Tactical Implementation
45%

Currently Monitoring

94
Player Club Status Ability Confidence Watched Last Observed Latest Vote
Jorge Berlanga Pachuca Active 128 / 124 40% 1 24.01.2028 -
Tomás Jacob Atlanta United FC Active 122 / 121 40% 1 24.01.2028 -
Tomás Silva Platense Active 124 / 131 40% 1 24.01.2028 -
Mateo Castillo Real Cartagena Active 128 / 127 40% 1 17.01.2028 -
Igor Jesus Los Angeles Football Club Active 122 / 119 40% 1 17.01.2028 -
Ignacio Perruzzi San Lorenzo Active 124 / 129 40% 1 17.01.2028 -
Santiago González Tigre Active 132 / 130 40% 1 03.01.2028 -
Max Johnston Derby County Active 134 / 135 40% 1 03.01.2028 -
Alexsander Atlético Mineiro Active 136 / 134 40% 1 03.01.2028 -
Facundo Balatti Penarol Active 100 / 108 40% 3 28.08.2027 -
Kenan Busuladžić Halmstad Active 116 / 122 40% 1 28.08.2027 -
Afriyie Sulemana Hasaacas Active 101 / 103 40% 1 28.08.2027 -
Drew Baiera New York City Active 90 / 107 40% 1 27.08.2027 -
Mbekezeli Mbokazi Chicago Fire Active 123 / 133 40% 4 26.08.2027 -
Luka Vušković Brighton Active 145 / 153 40% 1 26.08.2027 -
Mattia Puzone Siracusa Active 103 / 108 40% 2 18.08.2027 -
Jon Esenga IF Elfsborg Active 94 / 101 40% 1 18.08.2027 -
Bence Szakos Aris Active 96 / 101 40% 1 18.08.2027 -
Sascha Britschgi Fiorentina Active 124 / 130 40% 2 14.08.2027 -
Isaiah Dada-Mascoll Cultural Leonesa Active 100 / 106 40% 1 14.08.2027 -
Wilmar Borja La Equidad Active 100 / 107 40% 2 12.08.2027 -
Adrian Skogmar Malmo FF Active 119 / 125 40% 1 10.08.2027 -
Nnamdi Obafemi Remo Stars Active 96 / 107 40% 1 10.08.2027 -
Joe Knight Stevenage Active 103 / 111 40% 1 09.08.2027 -
Mattia Mannini Juve Stabia Active 116 / 122 40% 2 05.08.2027 -
Jose Rodriguez La Equidad Active 97 / 109 40% 1 04.08.2027 -
Ismaël Baouf Cambuur Active 119 / 129 40% 1 04.08.2027 -
Simone Kosijer Triestina Active 102 / 102 40% 1 27.07.2027 -
Mats Egbring Heerenveen Active 102 / 111 40% 1 27.07.2027 -
Jacen Russell-Rowe Toulouse FC Active 120 / 120 40% 2 24.07.2027 -
Otto Stange Hamburger SV Active 120 / 126 40% 1 24.07.2027 -
Harvey Blair Portsmouth Active 123 / 121 40% 2 20.07.2027 -
Rocco Vata Watford Active 126 / 130 40% 1 19.07.2027 -
Moctar Diop KAA Gent Active 123 / 124 40% 1 16.07.2027 -
Myron van Brederode KV Mechelen Active 123 / 125 40% 1 14.07.2027 -
Dom Ballard Leyton Orient Active 121 / 124 40% 2 08.07.2027 -
Stiven Shpendi Empoli Active 125 / 121 40% 1 08.07.2027 -
Iwan Morgan Grimsby Town Active 111 / 117 40% 1 05.07.2027 -
Tammer Kumar West Bromwich Albion Active 121 / 125 40% 1 05.07.2027 -
Fabrizio Cavegn Bristol Rovers Active 115 / 113 40% 1 05.07.2027 -
Fally Mayulu Arouca Active 122 / 120 40% 1 03.07.2027 -
Agustín Venezia Iquique Active 116 / 118 40% 1 03.07.2027 -
David Romero Parma Active 125 / 130 40% 1 30.06.2027 -
José Neto Alverca Active 113 / 126 40% 1 29.06.2027 -
Toni Tamarit Alverca Active 115 / 127 40% 1 29.06.2027 -
Muhammadyusuf Sobirov Bunyodkor Active 110 / 113 40% 1 26.06.2027 -
Luka Kolar Rudar Velenje Active 108 / 115 40% 1 26.06.2027 -
Mauricio Amaro Atlanta United FC Active 131 / 128 40% 3 24.06.2027 -
Teo Rodríguez Pagano San Lorenzo Active 110 / 120 40% 1 24.06.2027 -
Benedek Erdélyi Debrecen Active 101 / 104 40% 2 22.06.2027 -
Omar Mabkhout Al Ahli Active 113 / 117 40% 2 20.06.2027 -
Ignacio Roldán Lanús Active 89 / 99 40% 1 19.06.2027 -
Kevin Martínez Danubio Active 95 / 104 40% 1 18.06.2027 -
Silas Huber Zurich Active 119 / 128 40% 1 18.06.2027 -
Rafik el Arguioui Utrecht Active 108 / 116 40% 1 07.06.2027 -
Marco Oroná Antofagasta Active 95 / 106 40% 1 03.06.2027 -
Elie N'Gatta Sochaux Active 94 / 98 40% 1 01.06.2027 -
Vinicius Tobias Shakhtar Active 129 / 134 40% 1 30.01.2027 -
Juraj Badelj Aris Active 116 / 119 40% 1 30.01.2027 -
Will Fish Cardiff City Active 120 / 122 40% 1 30.01.2027 -
Kamogelo Sebelebele Orlando Pirates Active 107 / 123 40% 1 29.01.2027 -
Brad Hills Stockport County Active 119 / 120 40% 1 29.01.2027 -
Arsenii Batahov Trabzonspor Active 131 / 130 40% 1 29.01.2027 -
Yerson Chacón AE Kition Active 116 / 115 40% 1 28.01.2027 -
Tobías Cervera SonderjyskE Active 123 / 112 40% 1 28.01.2027 -
Peter Federico Gornik Zabrze Active 126 / 124 40% 1 28.01.2027 -
Bae Jun-Ho Stoke City Active 127 / 126 40% 1 27.01.2027 -
Marlon Gomes Shakhtar Active 133 / 139 40% 1 26.01.2027 -
Teden Mengi Luton Town Active 125 / 124 40% 1 26.01.2027 -
Nikola Stanković Cukaricki Active 114 / 110 40% 1 26.01.2027 -
Kelvin Flórez Udinese Active 111 / 116 40% 1 24.01.2027 -
Romano Floriani Mussolini Avellino Active 125 / 126 40% 1 22.01.2027 -
Ethan Pye Stockport County Active 117 / 116 40% 1 22.01.2027 -
Morgan Manyama SuperSport United Active 117 / 124 40% 1 19.01.2027 -
George Earthy Reading Active 119 / 123 40% 2 18.01.2027 -
Malik Mothersille Stockport County Active 116 / 114 40% 1 18.01.2027 -
Marvin Kaleta Rotherham United Active 105 / 107 40% 2 17.01.2027 -
Bongani Mokotjo Ajax Cape Town Active 110 / 116 40% 1 17.01.2027 -
Xavier Simons Bolton Wanderers Active 120 / 119 40% 1 17.01.2027 -
Brodie Spencer Oxford United Active 120 / 126 40% 1 16.01.2027 -
Mateja Milovanović Partizan Active 118 / 122 40% 1 16.01.2027 -
Mduduzi Shabalala Kaizer Chiefs Active 114 / 110 40% 1 12.01.2027 -
Cian Ashford Cardiff City Active 119 / 118 40% 1 12.01.2027 -
Williams Furman Ajax Cape Town Active 101 / 113 40% 1 10.01.2027 -
Marcus Ifill Bromley Active 107 / 109 40% 1 10.01.2027 -
Mamadou Coulibaly Al Jazira Active 127 / 121 40% 1 09.01.2027 -
Ryan Trevitt AFC Wimbledon Active 110 / 120 40% 1 09.01.2027 -
Pedro Zenit Active 131 / 141 40% 1 02.01.2027 -
Dro Paris Saint-Germain Active 119 / 139 40% 1 01.01.2027 -
Konrad Michalak Panetolikos Active 114 / 114 30% 1 / 1m 23.09.2026 -
Law McCabe Middlesbrough Active 103 / 116 40% 1 19.08.2026 -
Eddie Salcedo OFI Active 115 / 119 83% 1 17.08.2026 Approve
Jozhua Vertrouwd Rayo Vallecano Active 119 / 124 40% 1 10.08.2026 -
Mamadou Sané Aris Active 93 / 94 40% 1 03.08.2026 -